Time;durP1;ratioP1;P1;durP2;ratioP2;P2;SDS_P1;SDS_P2;PMS_P1;PMS_P2;Temp;Humidity;BMP_temperature;BMP_pressure;BME280_temperature;BME280_humidity;BME280_pressure;Samples;Min_cycle;Max_cycle;Signal;HPM_P1;HPM_P2
2022/10/08 00:01:43;;;;;;;31.17;15.85;;;;;;;;;;4955376;28;20035;-61
2022/10/08 00:04:11;;;;;;;40.50;17.08;;;;;;;;;;4955382;28;20043;-64
2022/10/08 00:06:38;;;;;;;46.50;18.00;;;;;;;;;;4955388;28;20034;-62
2022/10/08 00:09:06;;;;;;;46.92;16.02;;;;;;;;;;4938679;28;20083;-62
2022/10/08 00:11:35;;;;;;;53.75;17.50;;;;;;;;;;4948665;28;20034;-61
2022/10/08 00:14:02;;;;;;;52.88;16.42;;;;;;;;;;4947905;29;20038;-61
2022/10/08 00:16:31;;;;;;;57.53;17.88;;;;;;;;;;4954598;28;20035;-62
2022/10/08 00:19:00;;;;;;;60.85;15.90;;;;;;;;;;4954735;28;20020;-62
2022/10/08 00:21:31;;;;;;;68.68;16.73;;;;;;;;;;4954515;28;20035;-62
2022/10/08 00:24:00;;;;;;;67.57;15.45;;;;;;;;;;4954468;28;20498;-62
2022/10/08 00:26:28;;;;;;;70.85;15.98;;;;;;;;;;4954422;28;20031;-63
2022/10/08 00:28:57;;;;;;;53.85;14.60;;;;;;;;;;4950165;28;20043;-62
2022/10/08 00:31:25;;;;;;;56.45;14.82;;;;;;;;;;4952445;28;20102;-64
2022/10/08 00:33:54;;;;;;;60.78;13.30;;;;;;;;;;4952527;28;20126;-63
2022/10/08 00:36:22;;;;;;;46.33;13.23;;;;;;;;;;4952698;28;20375;-63
2022/10/08 00:38:49;;;;;;;43.17;12.25;;;;;;;;;;4953124;28;20051;-64
2022/10/08 00:41:20;;;;;;;43.53;12.43;;;;;;;;;;4950583;28;20027;-63
2022/10/08 00:43:52;;;;;;;46.00;12.75;;;;;;;;;;4952532;28;20042;-62
2022/10/08 00:46:19;;;;;;;50.63;13.30;;;;;;;;;;4952381;28;20066;-64
2022/10/08 00:48:49;;;;;;;52.78;12.63;;;;;;;;;;4941734;28;20121;-64
2022/10/08 00:51:16;;;;;;;48.50;12.73;;;;;;;;;;4945547;29;20027;-64
2022/10/08 00:53:43;;;;;;;55.72;12.63;;;;;;;;;;4946057;29;20038;-63
2022/10/08 00:56:10;;;;;;;53.78;13.57;;;;;;;;;;4949664;28;20031;-62
2022/10/08 00:58:39;;;;;;;42.13;12.00;;;;;;;;;;4950077;28;20035;-64
2022/10/08 01:01:06;;;;;;;46.42;12.10;;;;;;;;;;4948297;28;20031;-64
2022/10/08 01:03:33;;;;;;;49.38;11.85;;;;;;;;;;4952832;28;20027;-63
2022/10/08 01:06:00;;;;;;;49.22;11.27;;;;;;;;;;4952493;28;20031;-62
2022/10/08 01:08:33;;;;;;;36.95;10.88;;;;;;;;;;4950557;28;20501;-63
2022/10/08 01:11:00;;;;;;;42.13;11.43;;;;;;;;;;4950428;28;20031;-62
2022/10/08 01:13:27;;;;;;;29.40;10.80;;;;;;;;;;4953627;29;20035;-62
2022/10/08 01:16:09;;;;;;;41.67;11.20;;;;;;;;;;4954296;28;20060;-63
2022/10/08 01:18:36;;;;;;;39.55;10.25;;;;;;;;;;4951702;28;20040;-62
2022/10/08 01:21:12;;;;;;;38.83;10.35;;;;;;;;;;4954206;28;20063;-63
2022/10/08 01:23:45;;;;;;;28.63;8.98;;;;;;;;;;4952750;28;20070;-63
2022/10/08 01:26:12;;;;;;;30.88;9.32;;;;;;;;;;4953912;28;20510;-62
2022/10/08 01:28:45;;;;;;;32.60;9.63;;;;;;;;;;4954045;28;20035;-63
2022/10/08 01:31:28;;;;;;;37.80;9.27;;;;;;;;;;4951153;28;21962;-61
2022/10/08 01:33:58;;;;;;;38.88;9.63;;;;;;;;;;4950064;28;20035;-62
2022/10/08 01:36:26;;;;;;;32.97;8.80;;;;;;;;;;4937796;29;20482;-62
2022/10/08 01:38:59;;;;;;;35.50;9.40;;;;;;;;;;4941757;28;20043;-64
2022/10/08 01:41:28;;;;;;;28.27;8.27;;;;;;;;;;4940751;29;20071;-62
2022/10/08 01:44:08;;;;;;;39.08;8.68;;;;;;;;;;4933765;28;20390;-64
2022/10/08 01:46:39;;;;;;;34.22;8.57;;;;;;;;;;4939186;29;20122;-62
2022/10/08 01:49:16;;;;;;;30.23;7.37;;;;;;;;;;4937957;29;20490;-63
2022/10/08 01:51:51;;;;;;;28.45;8.18;;;;;;;;;;4935794;29;20043;-65
2022/10/08 01:54:19;;;;;;;25.08;7.57;;;;;;;;;;4937502;29;20040;-64
2022/10/08 01:56:47;;;;;;;23.20;6.97;;;;;;;;;;4938817;29;20182;-62
2022/10/08 01:59:17;;;;;;;23.15;7.43;;;;;;;;;;4937557;29;20118;-62
2022/10/08 02:01:59;;;;;;;26.17;7.95;;;;;;;;;;4937547;29;20486;-64
2022/10/08 02:04:33;;;;;;;23.08;7.43;;;;;;;;;;4936704;29;20086;-63
2022/10/08 02:07:20;;;;;;;23.80;7.30;;;;;;;;;;4937829;29;20035;-63
2022/10/08 02:09:52;;;;;;;30.00;6.57;;;;;;;;;;4945507;29;20030;-62
2022/10/08 02:12:21;;;;;;;28.33;6.22;;;;;;;;;;4970936;28;20089;-63
2022/10/08 02:14:51;;;;;;;27.05;5.40;;;;;;;;;;4955601;28;20050;-63
2022/10/08 02:17:29;;;;;;;21.17;4.95;;;;;;;;;;4955327;29;20061;-63
2022/10/08 02:20:02;;;;;;;19.58;5.70;;;;;;;;;;4955460;29;20031;-62
2022/10/08 02:22:33;;;;;;;16.00;4.72;;;;;;;;;;4955012;29;20035;-63
2022/10/08 02:25:29;;;;;;;17.60;5.38;;;;;;;;;;4954759;29;20027;-63
2022/10/08 02:27:56;;;;;;;19.30;5.03;;;;;;;;;;4967933;28;20046;-63
2022/10/08 02:30:23;;;;;;;21.63;4.80;;;;;;;;;;4955794;28;20078;-62
2022/10/08 02:32:58;;;;;;;13.93;4.75;;;;;;;;;;4955605;28;20047;-63
2022/10/08 02:35:33;;;;;;;19.00;5.15;;;;;;;;;;4955850;28;20077;-62
2022/10/08 02:38:16;;;;;;;13.48;4.28;;;;;;;;;;4955201;29;20494;-63
2022/10/08 02:40:46;;;;;;;18.67;3.88;;;;;;;;;;4955638;29;20441;-63
2022/10/08 02:43:17;;;;;;;18.13;3.85;;;;;;;;;;4951622;28;20035;-62
2022/10/08 02:45:49;;;;;;;11.55;3.50;;;;;;;;;;4955895;28;20035;-62
2022/10/08 02:48:20;;;;;;;16.17;3.80;;;;;;;;;;4952690;28;20031;-62
2022/10/08 02:50:49;;;;;;;15.35;4.03;;;;;;;;;;4956161;28;20031;-62
2022/10/08 02:53:17;;;;;;;11.00;3.15;;;;;;;;;;4953604;29;20031;-62
2022/10/08 02:56:02;;;;;;;16.95;3.53;;;;;;;;;;4955933;28;20509;-61
2022/10/08 02:58:30;;;;;;;7.85;2.88;;;;;;;;;;4956336;28;20442;-62
2022/10/08 03:01:09;;;;;;;11.15;3.03;;;;;;;;;;4955461;28;20039;-61
2022/10/08 03:03:40;;;;;;;14.15;3.20;;;;;;;;;;4953211;28;20035;-59
2022/10/08 03:06:09;;;;;;;9.18;2.60;;;;;;;;;;4956141;28;20453;-60
2022/10/08 03:08:40;;;;;;;8.70;2.75;;;;;;;;;;4954168;28;20589;-60
2022/10/08 03:11:07;;;;;;;8.38;2.92;;;;;;;;;;4956331;28;20150;-59
2022/10/08 03:13:37;;;;;;;8.02;2.70;;;;;;;;;;4956438;28;20038;-59
2022/10/08 03:16:07;;;;;;;10.63;2.33;;;;;;;;;;4956153;28;20069;-59
2022/10/08 03:18:36;;;;;;;7.65;2.55;;;;;;;;;;4955969;28;20051;-59
2022/10/08 03:21:03;;;;;;;11.52;2.78;;;;;;;;;;4955270;28;20054;-61
2022/10/08 03:23:30;;;;;;;9.18;2.15;;;;;;;;;;4955437;28;20078;-60
2022/10/08 03:25:57;;;;;;;9.27;2.50;;;;;;;;;;4969925;28;20062;-59
2022/10/08 03:28:24;;;;;;;11.43;2.60;;;;;;;;;;4955888;28;20158;-59
2022/10/08 03:30:51;;;;;;;11.38;2.50;;;;;;;;;;4956065;28;20066;-59
2022/10/08 03:33:18;;;;;;;8.10;2.33;;;;;;;;;;4955841;28;20134;-59
2022/10/08 03:35:45;;;;;;;7.20;2.08;;;;;;;;;;4955641;28;20035;-59
2022/10/08 03:38:14;;;;;;;17.10;2.10;;;;;;;;;;4970835;28;20031;-59
2022/10/08 03:40:42;;;;;;;9.25;2.10;;;;;;;;;;4955932;28;20071;-59
2022/10/08 03:43:09;;;;;;;10.43;1.55;;;;;;;;;;4955901;28;20387;-59
2022/10/08 03:45:36;;;;;;;7.05;1.90;;;;;;;;;;4955878;28;20393;-59
2022/10/08 03:48:03;;;;;;;11.50;1.70;;;;;;;;;;4955772;28;20042;-59
2022/10/08 03:50:30;;;;;;;9.60;1.55;;;;;;;;;;4955901;28;20079;-59
2022/10/08 03:52:56;;;;;;;30.83;3.15;;;;;;;;;;4955859;28;20033;-59
2022/10/08 03:55:24;;;;;;;31.70;2.65;;;;;;;;;;4955632;28;20031;-59
2022/10/08 03:57:51;;;;;;;24.58;2.63;;;;;;;;;;4955763;28;20110;-59
2022/10/08 04:00:18;;;;;;;27.15;2.20;;;;;;;;;;4955599;28;20138;-59
2022/10/08 04:02:49;;;;;;;22.63;2.92;;;;;;;;;;4955636;28;20027;-59
2022/10/08 04:05:16;;;;;;;26.30;2.35;;;;;;;;;;4955501;28;20155;-59
2022/10/08 04:07:43;;;;;;;41.65;3.00;;;;;;;;;;4955071;28;20058;-59
2022/10/08 04:10:10;;;;;;;33.60;2.53;;;;;;;;;;4955498;28;20470;-59
2022/10/08 04:12:37;;;;;;;36.08;2.58;;;;;;;;;;4955539;28;20398;-59
2022/10/08 04:15:04;;;;;;;44.17;3.55;;;;;;;;;;4955434;29;20038;-59
2022/10/08 04:17:31;;;;;;;30.92;2.45;;;;;;;;;;4955552;28;20114;-59
2022/10/08 04:19:58;;;;;;;27.92;2.03;;;;;;;;;;4955441;28;20096;-59
2022/10/08 04:22:25;;;;;;;24.70;2.30;;;;;;;;;;4955415;28;20082;-59
2022/10/08 04:24:52;;;;;;;19.20;1.83;;;;;;;;;;4955343;28;20085;-59
2022/10/08 04:27:19;;;;;;;13.43;1.92;;;;;;;;;;4955253;28;20398;-59
2022/10/08 04:29:46;;;;;;;16.80;1.45;;;;;;;;;;4955327;28;20028;-59
2022/10/08 04:32:13;;;;;;;10.55;1.95;;;;;;;;;;4954958;28;20170;-59
2022/10/08 04:34:40;;;;;;;13.93;1.77;;;;;;;;;;4969896;28;20035;-59
2022/10/08 04:37:07;;;;;;;12.15;1.65;;;;;;;;;;4955121;28;20580;-59
2022/10/08 04:39:34;;;;;;;10.60;1.65;;;;;;;;;;4955239;28;20110;-59
2022/10/08 04:42:01;;;;;;;14.57;1.35;;;;;;;;;;4954994;28;20027;-59
2022/10/08 04:44:28;;;;;;;14.95;1.73;;;;;;;;;;4954963;28;20371;-59
2022/10/08 04:46:55;;;;;;;198.00;8.88;;;;;;;;;;4955048;28;20026;-59
2022/10/08 04:49:23;;;;;;;33.17;2.38;;;;;;;;;;4954432;28;20035;-59
2022/10/08 04:51:50;;;;;;;33.88;2.78;;;;;;;;;;4953437;28;20451;-59
2022/10/08 04:54:17;;;;;;;23.48;1.98;;;;;;;;;;4952794;28;20024;-60
2022/10/08 04:56:44;;;;;;;21.08;1.48;;;;;;;;;;4953467;28;20363;-59
2022/10/08 04:59:11;;;;;;;19.38;1.67;;;;;;;;;;4952715;28;20078;-59
2022/10/08 05:01:38;;;;;;;15.18;1.67;;;;;;;;;;4952306;28;20090;-59
2022/10/08 05:04:05;;;;;;;11.15;1.30;;;;;;;;;;4953107;28;20409;-59
2022/10/08 05:06:32;;;;;;;14.73;1.50;;;;;;;;;;4954736;28;20390;-59
2022/10/08 05:09:01;;;;;;;12.02;1.95;;;;;;;;;;4954784;28;20051;-59
2022/10/08 05:11:29;;;;;;;10.32;1.20;;;;;;;;;;4954653;28;20031;-59
2022/10/08 05:13:57;;;;;;;9.27;1.10;;;;;;;;;;4954643;28;20055;-59
2022/10/08 05:16:24;;;;;;;8.68;1.20;;;;;;;;;;4954527;28;20020;-59
2022/10/08 05:18:52;;;;;;;7.05;1.30;;;;;;;;;;4953757;28;20039;-59
2022/10/08 05:21:21;;;;;;;9.13;1.30;;;;;;;;;;4954569;28;20489;-59
2022/10/08 05:23:48;;;;;;;7.43;1.00;;;;;;;;;;4953350;28;20085;-59
2022/10/08 05:26:22;;;;;;;6.75;1.05;;;;;;;;;;4954534;28;20074;-59
2022/10/08 05:28:54;;;;;;;9.98;1.20;;;;;;;;;;4954585;28;20024;-59
2022/10/08 05:31:22;;;;;;;6.30;1.02;;;;;;;;;;4954524;28;20110;-59
2022/10/08 05:33:49;;;;;;;8.40;1.13;;;;;;;;;;4954271;28;20405;-59
2022/10/08 05:36:18;;;;;;;6.90;0.90;;;;;;;;;;4954487;28;20444;-59
2022/10/08 05:38:45;;;;;;;9.70;0.88;;;;;;;;;;4954387;28;20023;-59
2022/10/08 05:41:22;;;;;;;7.40;1.02;;;;;;;;;;4954469;28;20031;-59
2022/10/08 05:43:49;;;;;;;7.38;1.33;;;;;;;;;;4954227;28;20421;-59
2022/10/08 05:46:17;;;;;;;4.03;0.70;;;;;;;;;;4954325;28;20042;-59
2022/10/08 05:48:44;;;;;;;3.53;0.73;;;;;;;;;;4954249;28;20023;-59
2022/10/08 05:51:12;;;;;;;4.20;0.70;;;;;;;;;;4953211;28;20038;-59
2022/10/08 05:53:39;;;;;;;6.25;0.70;;;;;;;;;;4954175;28;20039;-59
2022/10/08 05:56:08;;;;;;;7.82;0.70;;;;;;;;;;4954211;28;20027;-59
2022/10/08 05:58:35;;;;;;;1.98;0.40;;;;;;;;;;4954226;28;20027;-59
2022/10/08 06:01:04;;;;;;;7.28;0.90;;;;;;;;;;4952495;28;20039;-59
2022/10/08 06:03:31;;;;;;;8.32;0.90;;;;;;;;;;4954076;29;20050;-59
2022/10/08 06:06:02;;;;;;;4.10;0.88;;;;;;;;;;4954179;29;20053;-59
2022/10/08 06:08:29;;;;;;;5.47;0.80;;;;;;;;;;4954165;28;20057;-59
2022/10/08 06:10:56;;;;;;;2.70;0.50;;;;;;;;;;4952963;28;20027;-59
2022/10/08 06:13:23;;;;;;;5.38;0.80;;;;;;;;;;4954219;28;20031;-59
2022/10/08 06:15:57;;;;;;;3.83;0.70;;;;;;;;;;4954161;28;20118;-59
2022/10/08 06:18:25;;;;;;;3.08;0.60;;;;;;;;;;4953676;28;20098;-59
2022/10/08 06:20:52;;;;;;;3.38;0.52;;;;;;;;;;4953869;28;20051;-60
2022/10/08 06:23:19;;;;;;;4.65;0.70;;;;;;;;;;4954018;28;20512;-59
2022/10/08 06:25:46;;;;;;;4.30;0.68;;;;;;;;;;4953964;28;20031;-59
2022/10/08 06:28:13;;;;;;;2.60;0.70;;;;;;;;;;4954045;28;20064;-59
2022/10/08 06:30:40;;;;;;;3.10;0.60;;;;;;;;;;4955365;28;20482;-59
2022/10/08 06:33:08;;;;;;;4.20;0.35;;;;;;;;;;4957204;28;20051;-59
2022/10/08 06:35:35;;;;;;;5.57;0.70;;;;;;;;;;4957212;28;20055;-59
2022/10/08 06:38:03;;;;;;;2.90;0.38;;;;;;;;;;4957463;28;20031;-59
2022/10/08 06:40:37;;;;;;;3.45;0.55;;;;;;;;;;4957390;28;20027;-59
2022/10/08 06:43:12;;;;;;;1.55;0.40;;;;;;;;;;4957014;28;20086;-60
2022/10/08 06:45:39;;;;;;;5.53;0.70;;;;;;;;;;4957100;28;20059;-59
2022/10/08 06:48:06;;;;;;;3.10;0.52;;;;;;;;;;4957251;28;20104;-59
2022/10/08 06:50:33;;;;;;;4.65;0.70;;;;;;;;;;4957178;28;20027;-59
2022/10/08 06:53:00;;;;;;;3.22;0.57;;;;;;;;;;4957124;28;20509;-59
2022/10/08 06:55:27;;;;;;;3.42;0.60;;;;;;;;;;4956968;28;20031;-59
2022/10/08 06:57:54;;;;;;;2.97;0.85;;;;;;;;;;4957026;28;20031;-59
2022/10/08 07:00:21;;;;;;;4.50;0.70;;;;;;;;;;4956539;28;20118;-60
2022/10/08 07:02:48;;;;;;;2.42;0.50;;;;;;;;;;4956803;28;20114;-60
2022/10/08 07:05:15;;;;;;;1.52;0.60;;;;;;;;;;4956746;28;20072;-60
2022/10/08 07:07:42;;;;;;;2.05;0.47;;;;;;;;;;4956874;28;20446;-60
2022/10/08 07:10:10;;;;;;;2.53;0.50;;;;;;;;;;4955428;28;20027;-59
2022/10/08 07:12:37;;;;;;;3.15;0.50;;;;;;;;;;4952782;29;20035;-59
2022/10/08 07:15:04;;;;;;;2.28;0.47;;;;;;;;;;4954632;28;20027;-59
2022/10/08 07:17:31;;;;;;;1.15;0.50;;;;;;;;;;4953618;28;20046;-59
2022/10/08 07:19:58;;;;;;;2.30;0.50;;;;;;;;;;4954845;28;20031;-59
2022/10/08 07:22:25;;;;;;;2.20;0.60;;;;;;;;;;4954214;28;20039;-59
2022/10/08 07:24:52;;;;;;;0.85;0.38;;;;;;;;;;4955681;28;20400;-59
2022/10/08 07:27:20;;;;;;;2.30;0.40;;;;;;;;;;4956010;28;20039;-59
2022/10/08 07:29:47;;;;;;;0.70;0.30;;;;;;;;;;4955849;28;20034;-59
2022/10/08 07:32:14;;;;;;;3.20;0.50;;;;;;;;;;4955992;28;20055;-59
2022/10/08 07:34:40;;;;;;;3.80;0.35;;;;;;;;;;4956143;28;20074;-60
2022/10/08 07:37:07;;;;;;;0.68;0.30;;;;;;;;;;4956310;28;20078;-60
2022/10/08 07:39:35;;;;;;;3.50;0.25;;;;;;;;;;4956193;28;20441;-60
2022/10/08 07:42:02;;;;;;;1.25;0.30;;;;;;;;;;4955186;28;20531;-60
2022/10/08 07:44:29;;;;;;;1.10;0.30;;;;;;;;;;4956057;28;20038;-60
2022/10/08 07:46:56;;;;;;;2.58;0.50;;;;;;;;;;4956060;28;20058;-59
2022/10/08 07:49:23;;;;;;;4.82;0.50;;;;;;;;;;4956084;28;20038;-60
2022/10/08 07:51:50;;;;;;;1.83;0.30;;;;;;;;;;4955924;28;20477;-60
2022/10/08 07:54:18;;;;;;;1.40;0.47;;;;;;;;;;4955814;28;20034;-60
2022/10/08 07:56:45;;;;;;;1.45;0.40;;;;;;;;;;4955912;28;20078;-60
2022/10/08 07:59:14;;;;;;;2.25;0.45;;;;;;;;;;4955759;28;20064;-60
2022/10/08 08:01:41;;;;;;;2.00;0.35;;;;;;;;;;4955667;28;20394;-60
2022/10/08 08:04:09;;;;;;;2.53;0.60;;;;;;;;;;4955632;28;20500;-60
2022/10/08 08:06:41;;;;;;;1.17;0.40;;;;;;;;;;4955792;28;20027;-60
2022/10/08 08:09:08;;;;;;;4.10;0.63;;;;;;;;;;4955725;28;20516;-60
2022/10/08 08:11:35;;;;;;;1.17;0.40;;;;;;;;;;4955536;28;20278;-59
2022/10/08 08:14:02;;;;;;;1.17;0.30;;;;;;;;;;4955510;28;20027;-60
2022/10/08 08:16:29;;;;;;;0.80;0.32;;;;;;;;;;4955428;28;20029;-60
2022/10/08 08:18:57;;;;;;;2.10;0.40;;;;;;;;;;4955488;28;20415;-60
2022/10/08 08:21:28;;;;;;;1.38;0.40;;;;;;;;;;4955468;28;20031;-60
2022/10/08 08:23:56;;;;;;;1.92;0.40;;;;;;;;;;4955189;28;20039;-60
2022/10/08 08:26:33;;;;;;;1.17;0.40;;;;;;;;;;4955303;28;20043;-60
2022/10/08 08:29:01;;;;;;;2.03;0.38;;;;;;;;;;4955349;28;20031;-60
2022/10/08 08:31:29;;;;;;;1.60;0.30;;;;;;;;;;4953678;29;20031;-60
2022/10/08 08:33:57;;;;;;;0.95;0.20;;;;;;;;;;4955091;28;20035;-60
2022/10/08 08:36:29;;;;;;;1.48;0.40;;;;;;;;;;4955201;28;20020;-60
2022/10/08 08:38:56;;;;;;;1.30;0.30;;;;;;;;;;4955229;28;20110;-60
2022/10/08 08:41:23;;;;;;;2.03;0.30;;;;;;;;;;4955171;28;20031;-60
2022/10/08 08:43:57;;;;;;;2.65;0.22;;;;;;;;;;4955104;28;20397;-60
2022/10/08 08:46:24;;;;;;;0.93;0.35;;;;;;;;;;4955006;28;20097;-60
2022/10/08 08:48:53;;;;;;;2.63;0.30;;;;;;;;;;4955035;28;20520;-60
2022/10/08 08:51:19;;;;;;;2.65;0.20;;;;;;;;;;4954926;28;20054;-59
2022/10/08 08:53:47;;;;;;;1.15;0.30;;;;;;;;;;4954694;28;20397;-60
2022/10/08 08:56:16;;;;;;;2.17;0.30;;;;;;;;;;4954735;28;20034;-59
2022/10/08 08:58:49;;;;;;;2.58;0.30;;;;;;;;;;4954856;28;20074;-60
2022/10/08 09:01:24;;;;;;;2.92;0.30;;;;;;;;;;4954838;28;20486;-60
2022/10/08 09:03:56;;;;;;;2.50;0.40;;;;;;;;;;4954647;28;20031;-60
2022/10/08 09:06:26;;;;;;;0.65;0.30;;;;;;;;;;4954835;28;20038;-59
2022/10/08 09:08:59;;;;;;;0.95;0.32;;;;;;;;;;4954739;28;20098;-60
2022/10/08 09:11:28;;;;;;;0.47;0.20;;;;;;;;;;4954721;28;20035;-60
2022/10/08 09:13:56;;;;;;;3.10;0.40;;;;;;;;;;4954598;28;20038;-60
2022/10/08 09:16:23;;;;;;;4.28;0.38;;;;;;;;;;4954721;28;20027;-60
2022/10/08 09:18:51;;;;;;;0.95;0.30;;;;;;;;;;4954617;28;20070;-60
2022/10/08 09:21:19;;;;;;;0.63;0.25;;;;;;;;;;4954326;28;20032;-60
2022/10/08 09:23:47;;;;;;;0.90;0.30;;;;;;;;;;4953604;28;20135;-60
2022/10/08 09:26:21;;;;;;;0.93;0.40;;;;;;;;;;4953919;28;20033;-60
2022/10/08 09:28:51;;;;;;;1.45;0.32;;;;;;;;;;4954697;28;20028;-60
2022/10/08 09:31:24;;;;;;;1.15;0.20;;;;;;;;;;4954477;28;20037;-60
2022/10/08 09:34:00;;;;;;;0.63;0.20;;;;;;;;;;4954298;28;20035;-60
2022/10/08 09:36:35;;;;;;;0.70;0.30;;;;;;;;;;4954441;28;20031;-60
2022/10/08 09:39:03;;;;;;;0.28;0.25;;;;;;;;;;4954504;28;20023;-60
2022/10/08 09:41:30;;;;;;;0.30;0.20;;;;;;;;;;4954441;28;20027;-60
2022/10/08 09:44:23;;;;;;;0.38;0.20;;;;;;;;;;4954245;28;20122;-60
2022/10/08 09:47:03;;;;;;;1.27;0.30;;;;;;;;;;4953448;29;20118;-60
2022/10/08 09:49:32;;;;;;;1.40;0.30;;;;;;;;;;4954379;28;20058;-60
2022/10/08 09:52:05;;;;;;;1.40;0.30;;;;;;;;;;4954198;28;20087;-60
2022/10/08 09:54:36;;;;;;;1.77;0.55;;;;;;;;;;4954206;28;20027;-60
2022/10/08 09:57:03;;;;;;;1.63;0.30;;;;;;;;;;4953007;29;20090;-60
2022/10/08 09:59:32;;;;;;;1.48;0.28;;;;;;;;;;4953041;29;20367;-60
2022/10/08 10:01:59;;;;;;;1.05;0.40;;;;;;;;;;4954181;28;20102;-60
2022/10/08 10:04:26;;;;;;;2.17;0.43;;;;;;;;;;4954106;28;20042;-60
2022/10/08 10:06:54;;;;;;;2.55;0.40;;;;;;;;;;4957690;28;20047;-60
2022/10/08 10:09:33;;;;;;;0.98;0.45;;;;;;;;;;4958042;28;20036;-60
2022/10/08 10:12:00;;;;;;;2.35;0.82;;;;;;;;;;4957893;28;20561;-60
2022/10/08 10:14:40;;;;;;;2.83;0.60;;;;;;;;;;4957485;28;20034;-60
2022/10/08 10:17:22;;;;;;;2.47;0.43;;;;;;;;;;4957761;28;20027;-60
2022/10/08 10:19:52;;;;;;;3.00;0.50;;;;;;;;;;4957719;28;20031;-60
2022/10/08 10:22:32;;;;;;;4.40;0.70;;;;;;;;;;4957612;28;20042;-60
2022/10/08 10:25:14;;;;;;;7.18;0.60;;;;;;;;;;4957544;28;20118;-60
2022/10/08 10:27:52;;;;;;;1.15;0.35;;;;;;;;;;4957594;28;20043;-60
2022/10/08 10:30:21;;;;;;;0.90;0.55;;;;;;;;;;4957525;28;20039;-59
2022/10/08 10:32:54;;;;;;;1.55;0.50;;;;;;;;;;4957138;28;20043;-60
2022/10/08 10:35:28;;;;;;;1.80;0.50;;;;;;;;;;4957181;28;20122;-60
2022/10/08 10:38:03;;;;;;;1.15;0.40;;;;;;;;;;4957322;28;20398;-60
2022/10/08 10:40:31;;;;;;;1.23;0.50;;;;;;;;;;4957289;28;20102;-60
2022/10/08 10:43:16;;;;;;;4.28;0.43;;;;;;;;;;4957248;28;20549;-60
2022/10/08 10:45:45;;;;;;;4.28;0.40;;;;;;;;;;4957084;28;20050;-59
2022/10/08 10:48:15;;;;;;;2.40;0.70;;;;;;;;;;4957148;28;20028;-60
2022/10/08 10:51:02;;;;;;;1.40;0.63;;;;;;;;;;4957136;28;20034;-60
2022/10/08 10:53:39;;;;;;;1.30;0.57;;;;;;;;;;4953380;29;20138;-60
2022/10/08 10:56:17;;;;;;;1.05;0.40;;;;;;;;;;4957004;28;20505;-60
2022/10/08 10:58:53;;;;;;;1.20;0.50;;;;;;;;;;4956993;28;20510;-60
2022/10/08 11:01:36;;;;;;;5.25;0.90;;;;;;;;;;4957017;28;20031;-59
2022/10/08 11:04:09;;;;;;;3.33;0.40;;;;;;;;;;4956710;28;20042;-60
2022/10/08 11:06:50;;;;;;;10.32;0.70;;;;;;;;;;4956797;28;20074;-60
2022/10/08 11:09:36;;;;;;;3.20;0.50;;;;;;;;;;4956860;28;20031;-59
2022/10/08 11:12:23;;;;;;;7.68;0.70;;;;;;;;;;4956722;28;20485;-59
2022/10/08 11:14:56;;;;;;;6.22;0.70;;;;;;;;;;4956731;28;20039;-60
2022/10/08 11:17:24;;;;;;;2.65;0.60;;;;;;;;;;4956587;28;20039;-60
2022/10/08 11:20:09;;;;;;;3.88;0.57;;;;;;;;;;4956459;28;20024;-60
2022/10/08 11:22:40;;;;;;;18.40;1.20;;;;;;;;;;4956544;28;20509;-60
2022/10/08 11:25:17;;;;;;;10.13;0.60;;;;;;;;;;4956474;28;20063;-60
2022/10/08 11:27:53;;;;;;;7.07;0.80;;;;;;;;;;4956413;28;20023;-60
2022/10/08 11:30:22;;;;;;;5.95;0.52;;;;;;;;;;4956396;28;20031;-59
2022/10/08 11:32:54;;;;;;;6.57;0.50;;;;;;;;;;4956212;28;20106;-60
2022/10/08 11:35:33;;;;;;;8.93;1.10;;;;;;;;;;4956204;28;20031;-60
2022/10/08 11:38:00;;;;;;;2.78;0.60;;;;;;;;;;4956393;28;21056;-60
2022/10/08 11:40:26;;;;;;;7.13;1.05;;;;;;;;;;4956136;28;20074;-60
2022/10/08 11:43:00;;;;;;;6.35;0.60;;;;;;;;;;4956053;28;20086;-60
2022/10/08 11:45:27;;;;;;;5.93;0.52;;;;;;;;;;4956017;28;20067;-60
2022/10/08 11:47:56;;;;;;;4.13;0.47;;;;;;;;;;4955863;28;20090;-60
2022/10/08 11:50:25;;;;;;;4.32;0.55;;;;;;;;;;4955843;28;20043;-60
2022/10/08 11:52:53;;;;;;;6.68;0.68;;;;;;;;;;4955814;28;20382;-59
2022/10/08 11:55:23;;;;;;;5.97;0.60;;;;;;;;;;4955829;28;20031;-59
2022/10/08 11:57:55;;;;;;;9.55;0.70;;;;;;;;;;4954586;29;20038;-59
2022/10/08 12:00:22;;;;;;;8.63;0.82;;;;;;;;;;4954618;29;20250;-59
2022/10/08 12:02:53;;;;;;;5.10;0.60;;;;;;;;;;4954127;29;20047;-59
2022/10/08 12:05:23;;;;;;;10.45;0.57;;;;;;;;;;4955637;29;20097;-59
2022/10/08 12:07:58;;;;;;;11.02;1.15;;;;;;;;;;4955448;29;20823;-58
2022/10/08 12:10:35;;;;;;;7.78;0.95;;;;;;;;;;4955594;28;20082;-59
2022/10/08 12:13:05;;;;;;;7.40;0.70;;;;;;;;;;4955149;28;20038;-59
2022/10/08 12:15:34;;;;;;;11.23;1.05;;;;;;;;;;4955212;28;20039;-61
2022/10/08 12:18:02;;;;;;;16.77;1.00;;;;;;;;;;4955752;28;20070;-61
2022/10/08 12:20:31;;;;;;;20.15;1.30;;;;;;;;;;4954019;29;20035;-61
2022/10/08 12:23:21;;;;;;;15.48;0.90;;;;;;;;;;4955284;28;20038;-60
2022/10/08 12:26:01;;;;;;;13.63;1.20;;;;;;;;;;4952143;28;20065;-60
2022/10/08 12:28:31;;;;;;;17.48;1.45;;;;;;;;;;4954776;28;20089;-60
2022/10/08 12:31:00;;;;;;;6.40;0.85;;;;;;;;;;4955344;28;20039;-60
2022/10/08 12:33:28;;;;;;;11.50;1.10;;;;;;;;;;4953827;28;20055;-61
2022/10/08 12:36:08;;;;;;;14.68;1.05;;;;;;;;;;4953996;28;20035;-59
2022/10/08 12:38:35;;;;;;;38.55;3.13;;;;;;;;;;4951314;29;20129;-61
2022/10/08 12:41:31;;;;;;;27.05;1.95;;;;;;;;;;4953080;29;20035;-59
2022/10/08 12:43:58;;;;;;;21.15;1.88;;;;;;;;;;4915940;29;20044;-60
2022/10/08 12:46:45;;;;;;;16.85;1.30;;;;;;;;;;4935060;29;20035;-59
2022/10/08 12:49:12;;;;;;;13.15;1.40;;;;;;;;;;4935007;29;20106;-59
2022/10/08 12:51:39;;;;;;;19.95;1.48;;;;;;;;;;4935080;29;20502;-59
2022/10/08 12:54:06;;;;;;;11.68;1.13;;;;;;;;;;4934946;29;20035;-59
2022/10/08 12:56:33;;;;;;;12.43;1.33;;;;;;;;;;4935077;29;20501;-59
2022/10/08 12:59:02;;;;;;;18.65;1.40;;;;;;;;;;4932116;29;20047;-58
2022/10/08 13:01:30;;;;;;;11.50;1.45;;;;;;;;;;4953552;28;20509;-58
2022/10/08 13:04:10;;;;;;;18.23;1.60;;;;;;;;;;4950214;28;20031;-58
2022/10/08 13:06:37;;;;;;;17.65;1.33;;;;;;;;;;4953716;28;20032;-57
2022/10/08 13:09:12;;;;;;;30.60;1.70;;;;;;;;;;4953725;28;20030;-58
2022/10/08 13:11:39;;;;;;;20.42;1.75;;;;;;;;;;4951611;28;20055;-59
2022/10/08 13:14:22;;;;;;;12.25;1.48;;;;;;;;;;4952711;28;20024;-59
2022/10/08 13:16:48;;;;;;;9.68;1.17;;;;;;;;;;4953786;28;20059;-60
2022/10/08 13:19:32;;;;;;;23.00;1.67;;;;;;;;;;4953049;28;20038;-57
2022/10/08 13:22:06;;;;;;;16.48;1.83;;;;;;;;;;4952673;28;20028;-60
2022/10/08 13:24:40;;;;;;;14.85;1.20;;;;;;;;;;4952688;28;20050;-60
2022/10/08 13:27:22;;;;;;;13.52;1.35;;;;;;;;;;4953266;28;20162;-60
2022/10/08 13:29:48;;;;;;;20.10;1.42;;;;;;;;;;4953027;28;20031;-59
2022/10/08 13:32:15;;;;;;;10.00;1.33;;;;;;;;;;4876618;28;2217515;-58
2022/10/08 13:34:42;;;;;;;12.35;1.30;;;;;;;;;;4953012;28;20321;-60
2022/10/08 13:37:12;;;;;;;7.70;0.98;;;;;;;;;;4953668;28;20054;-59
2022/10/08 13:39:41;;;;;;;9.35;0.90;;;;;;;;;;4954218;28;20390;-60
2022/10/08 13:42:14;;;;;;;15.02;1.30;;;;;;;;;;4952578;28;20708;-61
2022/10/08 13:44:42;;;;;;;7.70;1.55;;;;;;;;;;4942312;29;20166;-60
2022/10/08 13:47:18;;;;;;;10.77;1.30;;;;;;;;;;4957700;28;20031;-61
2022/10/08 13:49:46;;;;;;;8.73;0.93;;;;;;;;;;4958032;28;20034;-60
2022/10/08 13:52:16;;;;;;;10.13;1.35;;;;;;;;;;4957655;28;20039;-61
2022/10/08 13:54:43;;;;;;;14.75;0.90;;;;;;;;;;4956758;28;20027;-60
2022/10/08 13:57:10;;;;;;;13.18;0.93;;;;;;;;;;4958023;28;20027;-61
2022/10/08 13:59:37;;;;;;;16.88;1.60;;;;;;;;;;4957927;28;20111;-59
2022/10/08 14:02:04;;;;;;;7.88;1.48;;;;;;;;;;4957779;28;20046;-61
2022/10/08 14:04:31;;;;;;;8.48;1.08;;;;;;;;;;4956306;28;20106;-60
2022/10/08 14:06:58;;;;;;;8.73;1.20;;;;;;;;;;4957770;28;20028;-60
2022/10/08 14:09:29;;;;;;;8.25;1.10;;;;;;;;;;4957698;28;20394;-60
2022/10/08 14:11:58;;;;;;;6.72;0.68;;;;;;;;;;4957619;28;20498;-60
2022/10/08 14:14:25;;;;;;;8.40;1.33;;;;;;;;;;4956039;28;20393;-60
2022/10/08 14:16:53;;;;;;;10.50;0.80;;;;;;;;;;4957524;28;20034;-60
2022/10/08 14:19:20;;;;;;;10.23;1.02;;;;;;;;;;4957510;28;20046;-60
2022/10/08 14:21:48;;;;;;;11.85;1.08;;;;;;;;;;4957447;28;20098;-59
2022/10/08 14:24:15;;;;;;;8.98;1.00;;;;;;;;;;4956556;28;20106;-61
2022/10/08 14:26:42;;;;;;;8.27;0.82;;;;;;;;;;4957057;28;20405;-60
2022/10/08 14:29:10;;;;;;;10.52;1.35;;;;;;;;;;4957287;28;20062;-58
2022/10/08 14:31:37;;;;;;;3.83;0.65;;;;;;;;;;4957080;28;20023;-59
2022/10/08 14:34:04;;;;;;;8.88;0.90;;;;;;;;;;4956554;28;20437;-59
2022/10/08 14:36:41;;;;;;;12.27;0.98;;;;;;;;;;4956407;28;20027;-59
2022/10/08 14:39:08;;;;;;;10.07;0.80;;;;;;;;;;4957098;28;20066;-61
2022/10/08 14:41:36;;;;;;;6.78;0.73;;;;;;;;;;4957125;28;20028;-61
2022/10/08 14:44:03;;;;;;;5.93;0.73;;;;;;;;;;4956301;28;20046;-59
2022/10/08 14:46:30;;;;;;;13.10;1.17;;;;;;;;;;4956332;28;20504;-60
2022/10/08 14:48:57;;;;;;;4.70;0.90;;;;;;;;;;4957063;28;20027;-60
2022/10/08 14:51:24;;;;;;;4.43;0.70;;;;;;;;;;4956570;28;20027;-59
2022/10/08 14:53:52;;;;;;;9.40;1.25;;;;;;;;;;4956318;28;20027;-59